Time;durP1;ratioP1;P1;durP2;ratioP2;P2;SDS_P1;SDS_P2;PMS_P1;PMS_P2;Temp;Humidity;BMP_temperature;BMP_pressure;BME280_temperature;BME280_humidity;BME280_pressure;Samples;Min_cycle;Max_cycle;Signal;HPM_P1;HPM_P2
2024/02/28 00:00:38;;;;;;;40.25;19.48;;;3.60;99.90;;;;;;5053881;28;20093;-73
2024/02/28 00:03:04;;;;;;;37.90;19.13;;;3.80;99.90;;;;;;5072096;28;20062;-72
2024/02/28 00:05:30;;;;;;;39.95;19.10;;;3.70;99.90;;;;;;5053990;28;20040;-73
2024/02/28 00:07:56;;;;;;;36.00;18.05;;;3.70;99.90;;;;;;5054212;28;20043;-72
2024/02/28 00:10:21;;;;;;;42.15;18.58;;;3.80;99.90;;;;;;5071773;28;20439;-72
2024/02/28 00:12:47;;;;;;;39.65;19.08;;;3.70;99.90;;;;;;5071668;28;20036;-72
2024/02/28 00:15:13;;;;;;;41.80;21.50;;;3.70;99.90;;;;;;5071697;28;20057;-73
2024/02/28 00:17:42;;;;;;;42.22;20.05;;;3.80;99.90;;;;;;5053891;28;20044;-72
2024/02/28 00:20:09;;;;;;;41.38;19.58;;;3.70;99.90;;;;;;5071700;28;20045;-73
2024/02/28 00:22:38;;;;;;;40.25;20.52;;;3.60;99.90;;;;;;5053601;28;20040;-72
2024/02/28 00:25:06;;;;;;;44.55;20.40;;;3.70;99.90;;;;;;5053515;28;20036;-72
2024/02/28 00:27:34;;;;;;;48.00;21.08;;;3.70;99.90;;;;;;5071386;28;20055;-73
2024/02/28 00:30:00;;;;;;;46.28;21.10;;;3.60;99.90;;;;;;5053487;28;20496;-72
2024/02/28 00:32:26;;;;;;;43.58;21.50;;;3.50;99.90;;;;;;5053358;28;20049;-73
2024/02/28 00:34:51;;;;;;;44.97;22.15;;;3.60;99.90;;;;;;5053599;28;20048;-73
2024/02/28 00:37:17;;;;;;;44.25;20.45;;;3.60;99.90;;;;;;5053354;28;20052;-72
2024/02/28 00:39:44;;;;;;;47.65;21.05;;;3.80;99.90;;;;;;5053650;28;20476;-73
2024/02/28 00:42:10;;;;;;;48.72;20.95;;;3.80;99.90;;;;;;5071245;28;20093;-73
2024/02/28 00:44:36;;;;;;;50.58;22.70;;;3.70;99.90;;;;;;5071345;28;20471;-73
2024/02/28 00:47:02;;;;;;;50.38;21.58;;;3.70;99.90;;;;;;5071794;28;20041;-73
2024/02/28 00:49:27;;;;;;;46.42;22.00;;;3.80;99.90;;;;;;5071489;28;20542;-73
2024/02/28 00:51:53;;;;;;;50.65;22.98;;;3.80;99.90;;;;;;5053193;28;20080;-71
2024/02/28 00:54:19;;;;;;;48.03;20.33;;;3.90;99.90;;;;;;5071512;28;20064;-71
2024/02/28 00:56:44;;;;;;;44.33;20.80;;;3.80;99.90;;;;;;5071546;28;20036;-71
2024/02/28 00:59:11;;;;;;;53.20;20.73;;;3.70;99.90;;;;;;5071276;28;20052;-71
2024/02/28 01:01:36;;;;;;;43.05;21.88;;;3.60;99.90;;;;;;5071392;28;20098;-71
2024/02/28 01:04:02;;;;;;;50.72;20.55;;;3.80;99.90;;;;;;5071464;28;20032;-71
2024/02/28 01:06:27;;;;;;;39.85;18.85;;;3.80;99.90;;;;;;5071652;28;20037;-71
2024/02/28 01:08:53;;;;;;;42.50;19.92;;;3.70;99.90;;;;;;5053211;28;20044;-71
2024/02/28 01:11:19;;;;;;;40.30;18.17;;;3.80;99.90;;;;;;5053297;28;20127;-72
2024/02/28 01:13:44;;;;;;;45.67;21.38;;;3.80;99.90;;;;;;5071224;28;20043;-71
2024/02/28 01:16:10;;;;;;;45.60;20.38;;;3.70;99.90;;;;;;5071308;28;20115;-71
2024/02/28 01:18:35;;;;;;;44.72;21.17;;;3.80;99.90;;;;;;5053096;28;20063;-72
2024/02/28 01:21:01;;;;;;;46.00;19.27;;;3.70;99.90;;;;;;5052862;28;20052;-72
2024/02/28 01:23:27;;;;;;;45.25;19.42;;;3.70;99.90;;;;;;5071174;28;20059;-71
2024/02/28 01:25:52;;;;;;;45.00;20.98;;;3.50;99.90;;;;;;5053194;28;20507;-72
2024/02/28 01:28:18;;;;;;;42.42;21.35;;;3.70;99.90;;;;;;5070834;28;20102;-71
2024/02/28 01:30:44;;;;;;;49.63;21.45;;;3.80;99.90;;;;;;5070965;28;20041;-72
2024/02/28 01:33:09;;;;;;;43.85;21.23;;;3.80;99.90;;;;;;5071209;28;20615;-72
2024/02/28 01:35:35;;;;;;;52.10;22.98;;;3.70;99.90;;;;;;5071158;28;20040;-72
2024/02/28 01:38:00;;;;;;;43.78;21.02;;;3.80;99.90;;;;;;5070833;28;20123;-71
2024/02/28 01:40:26;;;;;;;55.72;24.23;;;3.70;99.90;;;;;;5072894;28;20037;-71
2024/02/28 01:42:52;;;;;;;45.30;21.98;;;3.90;99.90;;;;;;5074684;28;20036;-71
2024/02/28 01:45:17;;;;;;;46.10;20.52;;;3.70;99.90;;;;;;5056586;28;20094;-71
2024/02/28 01:47:43;;;;;;;43.47;21.40;;;3.70;99.90;;;;;;5074982;28;20036;-72
2024/02/28 01:50:11;;;;;;;49.60;22.02;;;3.70;99.90;;;;;;5074659;28;20032;-71
2024/02/28 01:52:39;;;;;;;42.13;22.23;;;3.70;99.90;;;;;;5074225;28;20078;-71
2024/02/28 01:55:06;;;;;;;45.97;21.17;;;3.80;99.90;;;;;;5074543;28;20040;-71
2024/02/28 01:57:32;;;;;;;48.60;22.17;;;3.70;99.90;;;;;;5074442;28;20101;-71
2024/02/28 01:59:58;;;;;;;47.08;21.33;;;3.90;99.90;;;;;;5074509;28;20075;-72
2024/02/28 02:02:24;;;;;;;40.35;19.70;;;3.80;99.90;;;;;;5074133;28;20457;-71
2024/02/28 02:04:52;;;;;;;45.35;19.90;;;3.70;99.90;;;;;;5074345;28;20090;-71
2024/02/28 02:07:19;;;;;;;46.17;21.63;;;3.90;99.90;;;;;;5074018;28;20040;-71
2024/02/28 02:09:44;;;;;;;46.38;20.83;;;3.80;99.90;;;;;;5074369;28;20076;-72
2024/02/28 02:12:10;;;;;;;44.28;19.92;;;3.70;99.90;;;;;;5073894;28;20083;-72
2024/02/28 02:14:36;;;;;;;41.45;20.60;;;3.80;99.90;;;;;;5074497;28;20047;-72
2024/02/28 02:17:02;;;;;;;44.20;21.48;;;3.90;99.90;;;;;;5074410;28;20048;-72
2024/02/28 02:19:27;;;;;;;38.08;18.63;;;3.70;99.90;;;;;;5074211;28;20078;-71
2024/02/28 02:21:57;;;;;;;41.95;20.10;;;3.70;99.90;;;;;;5055991;28;20036;-71
2024/02/28 02:24:22;;;;;;;40.13;18.95;;;3.80;99.90;;;;;;5074202;28;20082;-72
2024/02/28 02:26:51;;;;;;;40.47;20.67;;;3.80;99.90;;;;;;5074020;28;20400;-72
2024/02/28 02:29:16;;;;;;;42.63;19.23;;;3.60;99.90;;;;;;5074082;28;20415;-72
2024/02/28 02:31:42;;;;;;;38.58;18.98;;;3.60;99.90;;;;;;5055604;28;20033;-72
2024/02/28 02:34:08;;;;;;;39.72;20.35;;;3.80;99.90;;;;;;5073866;28;20044;-72
2024/02/28 02:36:33;;;;;;;41.90;19.80;;;3.60;99.90;;;;;;5073986;28;20038;-72
2024/02/28 02:38:59;;;;;;;42.63;19.75;;;3.70;99.90;;;;;;5074015;28;20601;-71
2024/02/28 02:41:25;;;;;;;40.40;18.90;;;3.70;99.90;;;;;;5054535;28;20039;-72
2024/02/28 02:43:50;;;;;;;39.13;17.95;;;3.80;99.90;;;;;;5073076;28;20086;-71
2024/02/28 02:46:16;;;;;;;38.25;19.42;;;3.80;99.90;;;;;;5073305;28;20033;-72
2024/02/28 02:48:41;;;;;;;37.55;17.75;;;3.60;99.90;;;;;;5073095;28;20044;-72
2024/02/28 02:51:07;;;;;;;38.58;17.15;;;3.70;99.90;;;;;;5072226;28;20037;-71
2024/02/28 02:53:33;;;;;;;39.00;18.35;;;3.80;99.90;;;;;;5055140;28;20042;-72
2024/02/28 02:55:58;;;;;;;39.85;18.63;;;3.90;99.90;;;;;;5054656;28;20573;-72
2024/02/28 02:58:24;;;;;;;36.85;17.95;;;3.70;99.90;;;;;;5072621;28;20411;-72
2024/02/28 03:00:49;;;;;;;33.75;18.63;;;3.70;99.90;;;;;;5054474;28;20082;-72
2024/02/28 03:03:15;;;;;;;35.55;18.10;;;3.80;99.90;;;;;;5054858;28;20086;-72
2024/02/28 03:05:41;;;;;;;35.67;18.20;;;3.90;99.90;;;;;;5073194;28;20041;-72
2024/02/28 03:08:07;;;;;;;37.13;17.75;;;3.80;99.90;;;;;;5055226;28;20408;-72
2024/02/28 03:10:32;;;;;;;41.72;19.20;;;3.90;99.90;;;;;;5072713;28;20093;-72
2024/02/28 03:12:58;;;;;;;38.13;19.48;;;3.70;99.90;;;;;;5073397;28;20048;-72
2024/02/28 03:15:24;;;;;;;33.65;16.80;;;3.70;99.90;;;;;;5073094;28;20389;-72
2024/02/28 03:17:49;;;;;;;35.30;17.58;;;3.70;99.90;;;;;;5073032;28;20507;-72
2024/02/28 03:20:15;;;;;;;36.28;17.92;;;3.90;99.90;;;;;;5054854;28;20040;-72
2024/02/28 03:22:41;;;;;;;34.38;17.17;;;3.80;99.90;;;;;;5072515;28;20036;-72
2024/02/28 03:25:07;;;;;;;49.55;18.52;;;3.90;99.90;;;;;;5072671;28;20115;-72
2024/02/28 03:27:33;;;;;;;37.13;17.10;;;4.00;99.90;;;;;;5054969;28;20119;-72
2024/02/28 03:29:59;;;;;;;38.63;18.85;;;4.00;99.90;;;;;;5072612;28;20143;-72
2024/02/28 03:32:24;;;;;;;38.92;18.58;;;3.80;99.90;;;;;;5072472;28;20488;-72
2024/02/28 03:34:50;;;;;;;38.17;17.80;;;3.90;99.90;;;;;;5072608;28;20060;-72
2024/02/28 03:37:15;;;;;;;44.47;19.95;;;4.00;99.90;;;;;;5072699;28;20447;-72
2024/02/28 03:39:41;;;;;;;34.80;18.17;;;3.90;99.90;;;;;;5072325;28;20049;-71
2024/02/28 03:42:07;;;;;;;39.40;18.77;;;3.90;99.90;;;;;;5072349;28;20032;-72
2024/02/28 03:44:32;;;;;;;39.97;18.42;;;3.80;99.90;;;;;;5072301;28;20527;-72
2024/02/28 03:46:58;;;;;;;40.17;18.48;;;3.80;99.90;;;;;;5072271;28;20040;-72
2024/02/28 03:49:23;;;;;;;34.10;16.50;;;3.80;99.90;;;;;;5072323;28;20123;-72
2024/02/28 03:51:49;;;;;;;32.30;18.42;;;4.00;99.90;;;;;;5071460;28;20123;-73
2024/02/28 03:54:15;;;;;;;36.50;17.80;;;3.80;99.90;;;;;;5072195;28;20039;-71
2024/02/28 03:56:41;;;;;;;35.92;18.15;;;3.80;99.90;;;;;;5072541;28;20038;-72
2024/02/28 03:59:06;;;;;;;39.13;19.55;;;3.80;99.90;;;;;;5054100;28;20036;-72
2024/02/28 04:01:32;;;;;;;39.03;18.25;;;3.90;99.90;;;;;;5071804;28;20056;-72
2024/02/28 04:03:58;;;;;;;39.50;20.33;;;3.90;99.90;;;;;;5071589;28;20040;-72
2024/02/28 04:06:24;;;;;;;39.63;20.33;;;3.80;99.90;;;;;;5054385;28;20385;-72
2024/02/28 04:08:49;;;;;;;40.10;19.58;;;3.90;99.90;;;;;;5071756;28;20037;-72
2024/02/28 04:11:15;;;;;;;40.63;19.38;;;3.80;99.90;;;;;;5071876;28;20622;-72
2024/02/28 04:13:41;;;;;;;33.00;18.55;;;3.80;99.90;;;;;;5072173;28;20048;-72
2024/02/28 04:16:08;;;;;;;36.03;19.63;;;3.70;99.90;;;;;;5072101;28;20040;-72
2024/02/28 04:18:34;;;;;;;40.35;19.15;;;3.80;99.90;;;;;;5053695;28;20495;-72
2024/02/28 04:20:59;;;;;;;36.58;18.38;;;3.90;99.90;;;;;;5071462;28;20108;-72
2024/02/28 04:23:25;;;;;;;36.30;18.17;;;3.70;99.90;;;;;;5071753;28;20063;-72
2024/02/28 04:25:50;;;;;;;39.50;18.35;;;3.90;99.90;;;;;;5072051;28;20635;-72
2024/02/28 04:28:16;;;;;;;34.78;18.38;;;3.80;99.90;;;;;;5071801;28;20492;-72
2024/02/28 04:30:42;;;;;;;41.83;20.60;;;3.80;99.90;;;;;;5071290;28;20043;-72
2024/02/28 04:33:08;;;;;;;42.78;18.83;;;4.00;99.90;;;;;;5053771;28;20408;-72
2024/02/28 04:35:34;;;;;;;38.03;19.98;;;3.90;99.90;;;;;;5071692;28;20097;-72
2024/02/28 04:37:59;;;;;;;43.25;20.30;;;4.00;99.90;;;;;;5071264;28;20040;-72
2024/02/28 04:40:25;;;;;;;40.20;17.85;;;3.90;99.90;;;;;;5053699;28;20612;-71
2024/02/28 04:42:50;;;;;;;41.80;18.85;;;4.00;99.90;;;;;;5071039;28;20044;-72
2024/02/28 04:45:16;;;;;;;40.53;19.45;;;4.10;99.90;;;;;;5082305;22;20044;-75
2024/02/28 04:47:42;;;;;;;44.42;20.50;;;4.00;99.90;;;;;;5064829;28;20036;-74
2024/02/28 04:50:09;;;;;;;44.55;20.48;;;3.90;99.90;;;;;;5064098;28;20060;-74
2024/02/28 04:52:35;;;;;;;41.85;20.13;;;3.80;99.90;;;;;;5063985;28;20068;-74
2024/02/28 04:55:01;;;;;;;42.00;20.05;;;3.90;99.90;;;;;;5063582;28;20033;-74
2024/02/28 04:57:26;;;;;;;37.20;18.23;;;3.90;99.90;;;;;;5065170;28;20082;-77
2024/02/28 04:59:52;;;;;;;39.80;19.08;;;3.90;99.90;;;;;;5065437;28;20044;-76
2024/02/28 05:02:18;;;;;;;39.80;18.65;;;4.00;99.90;;;;;;5065646;28;20063;-76
2024/02/28 05:04:44;;;;;;;38.47;18.10;;;4.00;99.90;;;;;;5065816;28;20116;-76
2024/02/28 05:07:09;;;;;;;36.45;18.00;;;3.90;99.90;;;;;;5066886;28;20123;-76
2024/02/28 05:09:35;;;;;;;37.05;19.20;;;4.00;99.90;;;;;;5065691;28;20065;-76
2024/02/28 05:12:01;;;;;;;36.60;18.05;;;4.10;99.90;;;;;;5066051;28;20048;-76
2024/02/28 05:14:27;;;;;;;43.63;20.50;;;4.00;99.90;;;;;;5069435;28;20091;-76
2024/02/28 05:16:53;;;;;;;40.33;18.98;;;4.20;99.90;;;;;;5070645;28;20033;-76
2024/02/28 05:19:18;;;;;;;38.78;19.48;;;4.00;99.90;;;;;;5070094;28;20045;-76
2024/02/28 05:21:45;;;;;;;39.85;18.23;;;4.00;99.90;;;;;;5070518;28;20064;-76
2024/02/28 05:24:12;;;;;;;39.22;18.58;;;4.00;99.90;;;;;;5069453;28;20044;-76
2024/02/28 05:26:38;;;;;;;35.85;19.33;;;4.20;99.90;;;;;;5070140;28;20060;-76
2024/02/28 05:29:04;;;;;;;41.95;19.98;;;4.20;99.90;;;;;;5070431;28;20049;-77
2024/02/28 05:31:34;;;;;;;41.90;19.35;;;4.10;99.90;;;;;;5070400;28;20044;-77
2024/02/28 05:34:02;;;;;;;37.10;18.60;;;4.10;99.90;;;;;;5068737;28;20041;-77
2024/02/28 05:36:29;;;;;;;40.85;19.88;;;4.10;99.90;;;;;;5069380;28;20044;-76
2024/02/28 05:38:57;;;;;;;40.42;21.20;;;4.30;99.90;;;;;;5070887;28;20040;-77
2024/02/28 05:41:23;;;;;;;39.80;21.30;;;4.20;99.90;;;;;;5070440;28;20041;-77
2024/02/28 05:43:49;;;;;;;39.75;18.75;;;4.30;99.90;;;;;;5070377;28;20048;-77
2024/02/28 05:46:16;;;;;;;35.83;19.60;;;4.30;99.90;;;;;;5069753;28;20120;-77
2024/02/28 05:48:42;;;;;;;37.63;19.95;;;4.20;99.90;;;;;;5069261;28;20088;-77
2024/02/28 05:51:08;;;;;;;41.78;20.13;;;4.10;99.90;;;;;;5069980;28;20066;-77
2024/02/28 05:53:38;;;;;;;37.55;19.67;;;4.20;99.90;;;;;;5070159;28;20124;-76
2024/02/28 05:56:04;;;;;;;41.58;19.15;;;4.10;99.90;;;;;;5069707;28;20055;-76
2024/02/28 05:58:30;;;;;;;40.47;20.15;;;4.10;99.90;;;;;;5068764;28;20045;-77
2024/02/28 06:00:56;;;;;;;36.58;19.00;;;4.10;99.90;;;;;;5068417;28;20037;-77
2024/02/28 06:03:22;;;;;;;40.30;19.77;;;4.20;99.90;;;;;;5070811;28;20051;-77
2024/02/28 06:05:48;;;;;;;39.65;20.23;;;4.40;99.90;;;;;;5053385;28;20159;-77
2024/02/28 06:08:14;;;;;;;39.40;19.95;;;4.30;99.90;;;;;;5069351;28;20065;-77
2024/02/28 06:10:42;;;;;;;37.08;18.52;;;4.20;99.90;;;;;;5071061;28;20069;-77
2024/02/28 06:13:08;;;;;;;39.58;19.52;;;4.30;99.90;;;;;;5069217;28;20045;-77
2024/02/28 06:15:33;;;;;;;40.80;19.52;;;4.20;99.90;;;;;;5069274;28;20092;-77
2024/02/28 06:18:00;;;;;;;43.10;20.88;;;4.40;99.90;;;;;;5067987;28;20035;-77
2024/02/28 06:20:26;;;;;;;41.05;20.40;;;4.40;99.90;;;;;;5067863;28;20037;-77
2024/02/28 06:22:52;;;;;;;38.20;19.63;;;4.30;99.90;;;;;;5067609;28;20051;-77
2024/02/28 06:25:19;;;;;;;35.60;18.50;;;4.20;99.90;;;;;;5066645;28;20069;-77
2024/02/28 06:27:45;;;;;;;36.50;19.48;;;4.40;99.90;;;;;;5068507;28;20071;-77
2024/02/28 06:30:14;;;;;;;41.00;19.20;;;4.20;99.90;;;;;;5066955;28;20032;-77
2024/02/28 06:32:40;;;;;;;41.22;19.80;;;4.40;99.90;;;;;;5067460;28;20044;-77
2024/02/28 06:35:09;;;;;;;41.38;20.27;;;4.40;99.90;;;;;;5067456;28;20037;-77
2024/02/28 06:37:35;;;;;;;42.72;21.50;;;4.40;99.90;;;;;;5066088;28;20041;-77
2024/02/28 06:40:04;;;;;;;45.38;20.95;;;4.40;99.90;;;;;;5045742;28;20349;-77
2024/02/28 06:42:30;;;;;;;44.20;21.38;;;4.40;99.90;;;;;;5063682;28;20118;-77
2024/02/28 06:44:55;;;;;;;42.45;21.38;;;4.50;99.90;;;;;;5062654;28;20493;-77
2024/02/28 06:47:21;;;;;;;47.97;20.52;;;4.30;99.90;;;;;;5063283;28;20071;-76
2024/02/28 06:49:47;;;;;;;44.60;21.83;;;4.50;99.90;;;;;;5061289;28;20040;-77
2024/02/28 06:52:14;;;;;;;49.50;22.95;;;4.30;99.90;;;;;;5054357;28;20082;-77
2024/02/28 06:54:39;;;;;;;50.70;22.58;;;4.40;99.90;;;;;;5054465;28;20037;-77
2024/02/28 06:57:05;;;;;;;50.92;22.08;;;4.40;99.90;;;;;;5056612;28;20083;-77
2024/02/28 06:59:31;;;;;;;48.53;22.58;;;4.20;99.90;;;;;;5056497;28;20120;-77
2024/02/28 07:01:57;;;;;;;46.03;21.85;;;4.40;99.90;;;;;;5057369;28;20037;-77
2024/02/28 07:04:22;;;;;;;45.33;21.80;;;4.40;99.90;;;;;;5057536;28;20035;-77
2024/02/28 07:06:48;;;;;;;47.15;19.73;;;4.60;99.90;;;;;;5056047;28;20044;-77
2024/02/28 07:09:15;;;;;;;47.35;23.00;;;4.40;99.90;;;;;;5039549;28;20493;-77
2024/02/28 07:11:40;;;;;;;48.80;23.67;;;4.60;99.90;;;;;;5056189;28;20045;-77
2024/02/28 07:14:06;;;;;;;46.95;23.17;;;4.60;99.90;;;;;;5054832;28;20052;-77
2024/02/28 07:16:33;;;;;;;47.53;22.70;;;4.60;99.90;;;;;;5057784;28;20119;-77
2024/02/28 07:19:00;;;;;;;45.63;22.17;;;4.60;99.90;;;;;;5053845;28;20053;-76
2024/02/28 07:21:26;;;;;;;42.58;21.23;;;4.40;99.90;;;;;;5052455;28;20072;-77
2024/02/28 07:23:51;;;;;;;48.40;22.40;;;4.60;99.90;;;;;;5053096;28;20062;-76
2024/02/28 07:26:17;;;;;;;45.67;22.08;;;4.50;99.90;;;;;;5052937;28;20454;-77
2024/02/28 07:28:49;;;;;;;50.33;22.58;;;4.50;99.90;;;;;;5052139;28;20566;-77
2024/02/28 07:31:18;;;;;;;49.97;23.23;;;4.70;99.90;;;;;;5051999;28;20076;-77
2024/02/28 07:33:44;;;;;;;52.78;25.05;;;4.70;99.90;;;;;;5052167;28;20044;-77
2024/02/28 07:36:10;;;;;;;45.03;22.90;;;4.60;99.90;;;;;;5051594;28;20045;-77
2024/02/28 07:38:36;;;;;;;50.03;22.63;;;4.60;99.90;;;;;;5050224;28;20044;-77
2024/02/28 07:41:02;;;;;;;45.40;23.70;;;4.70;99.90;;;;;;5034645;28;20029;-77
2024/02/28 07:43:32;;;;;;;48.53;22.13;;;4.70;99.90;;;;;;5052923;28;20102;-77
2024/02/28 07:45:58;;;;;;;38.03;21.08;;;4.60;99.90;;;;;;5052616;28;20459;-77
2024/02/28 07:48:24;;;;;;;41.08;21.08;;;4.80;99.90;;;;;;5052463;28;20045;-76
2024/02/28 07:50:49;;;;;;;41.33;21.60;;;4.70;99.90;;;;;;5050850;28;20036;-77
2024/02/28 07:53:15;;;;;;;51.20;23.13;;;4.80;99.90;;;;;;5051206;28;20504;-76
2024/02/28 07:55:41;;;;;;;42.47;21.98;;;4.80;99.90;;;;;;5052717;28;20098;-76
2024/02/28 07:58:07;;;;;;;40.88;20.67;;;4.80;99.90;;;;;;5051015;28;20041;-77
2024/02/28 08:00:35;;;;;;;46.40;23.00;;;4.80;99.90;;;;;;5050137;28;20479;-76
2024/02/28 08:03:01;;;;;;;43.78;21.70;;;4.80;99.90;;;;;;5050620;28;20104;-76
2024/02/28 08:05:27;;;;;;;42.72;22.05;;;4.90;99.90;;;;;;5050364;28;20123;-77
2024/02/28 08:07:53;;;;;;;42.80;21.13;;;4.90;99.90;;;;;;5061399;28;20040;-78
2024/02/28 08:10:19;;;;;;;41.10;22.08;;;5.10;99.90;;;;;;5064322;28;20518;-76
2024/02/28 08:12:45;;;;;;;43.42;22.67;;;5.30;99.90;;;;;;5047255;28;20032;-76
2024/02/28 08:15:11;;;;;;;42.60;19.83;;;5.50;99.90;;;;;;5054228;28;20029;-76
2024/02/28 08:17:37;;;;;;;44.65;21.60;;;5.70;99.90;;;;;;5051304;28;20049;-75
2024/02/28 08:20:04;;;;;;;42.63;20.88;;;5.80;99.90;;;;;;5034291;28;20037;-75
2024/02/28 08:22:31;;;;;;;39.83;21.70;;;5.90;99.90;;;;;;5050990;28;20068;-75
2024/02/28 08:24:57;;;;;;;40.40;21.25;;;6.00;99.90;;;;;;5034542;28;20063;-76
2024/02/28 08:27:23;;;;;;;40.25;19.67;;;6.30;99.90;;;;;;5051138;28;20044;-76
2024/02/28 08:29:49;;;;;;;37.42;20.20;;;6.40;99.90;;;;;;5034201;28;20047;-76
2024/02/28 08:32:15;;;;;;;40.47;22.13;;;6.40;99.90;;;;;;5051630;28;20052;-76
2024/02/28 08:34:46;;;;;;;41.25;20.80;;;6.50;99.90;;;;;;5050715;28;20037;-77
2024/02/28 08:37:12;;;;;;;36.70;20.02;;;6.50;99.90;;;;;;5050533;28;20052;-77
2024/02/28 08:39:37;;;;;;;36.22;19.30;;;6.50;99.90;;;;;;5050611;28;20093;-77
2024/02/28 08:42:03;;;;;;;36.83;19.88;;;6.60;99.90;;;;;;5051397;28;20040;-77
2024/02/28 08:44:29;;;;;;;38.42;19.25;;;6.70;99.90;;;;;;5050243;28;20547;-77
2024/02/28 08:46:55;;;;;;;34.53;19.42;;;6.70;99.90;;;;;;5050344;28;20055;-77
2024/02/28 08:49:20;;;;;;;40.40;20.65;;;6.60;99.90;;;;;;5033356;28;20040;-77
2024/02/28 08:51:46;;;;;;;37.40;20.67;;;6.60;99.90;;;;;;5049939;28;20527;-77
2024/02/28 08:54:11;;;;;;;42.75;19.50;;;6.60;99.90;;;;;;5046414;28;20069;-77
2024/02/28 08:56:37;;;;;;;38.80;19.95;;;6.60;99.90;;;;;;5049765;28;20032;-76
2024/02/28 08:59:04;;;;;;;40.95;19.92;;;6.60;99.90;;;;;;5050005;28;20091;-76
2024/02/28 09:01:30;;;;;;;34.63;19.90;;;6.60;99.90;;;;;;5049933;28;20041;-77
2024/02/28 09:03:55;;;;;;;36.70;20.10;;;6.70;99.90;;;;;;5049731;28;20033;-74
2024/02/28 09:06:21;;;;;;;34.50;18.85;;;6.70;99.90;;;;;;5051066;28;20045;-74
2024/02/28 09:08:46;;;;;;;39.15;19.48;;;6.80;99.90;;;;;;5033840;28;20497;-75
2024/02/28 09:11:12;;;;;;;38.92;20.13;;;6.70;99.90;;;;;;5034495;28;20041;-76
2024/02/28 09:13:38;;;;;;;36.08;20.00;;;6.80;99.90;;;;;;5051081;28;20048;-75
2024/02/28 09:16:04;;;;;;;42.08;21.55;;;6.70;99.90;;;;;;5034208;28;20049;-76
2024/02/28 09:18:29;;;;;;;41.58;21.45;;;6.80;99.90;;;;;;5050200;28;20040;-76
2024/02/28 09:20:55;;;;;;;35.42;18.60;;;6.90;99.90;;;;;;5050946;28;20083;-76
2024/02/28 09:23:21;;;;;;;42.63;22.27;;;6.90;99.90;;;;;;5052261;28;20056;-77
2024/02/28 09:25:47;;;;;;;37.35;19.90;;;6.90;99.90;;;;;;5053523;28;20036;-76
2024/02/28 09:28:15;;;;;;;40.63;20.63;;;7.10;99.90;;;;;;5051322;28;20044;-76
2024/02/28 09:30:40;;;;;;;40.65;20.23;;;7.10;99.90;;;;;;5033839;28;20415;-76
2024/02/28 09:33:06;;;;;;;43.47;21.38;;;7.20;99.90;;;;;;5051830;28;20078;-76
2024/02/28 09:35:32;;;;;;;40.72;21.15;;;7.30;99.90;;;;;;5053556;28;20037;-78
2024/02/28 09:37:58;;;;;;;40.75;21.42;;;7.20;99.90;;;;;;5051931;28;20041;-79
2024/02/28 09:40:23;;;;;;;39.85;20.38;;;7.30;99.90;;;;;;5051937;28;20071;-78
2024/02/28 09:43:00;;;;;;;37.92;20.40;;;7.40;99.90;;;;;;5052769;28;20397;-79
2024/02/28 09:45:26;;;;;;;38.63;21.45;;;7.50;99.90;;;;;;5052122;28;20044;-79
2024/02/28 09:47:52;;;;;;;39.63;21.27;;;7.50;99.90;;;;;;5051405;28;20043;-79
2024/02/28 09:50:19;;;;;;;36.95;20.15;;;7.60;99.90;;;;;;5052745;28;20041;-79
2024/02/28 09:52:45;;;;;;;38.03;19.48;;;7.60;99.90;;;;;;5056861;28;20065;-79
2024/02/28 09:55:10;;;;;;;37.63;19.55;;;7.60;99.90;;;;;;5055615;28;20033;-84
2024/02/28 09:57:38;;;;;;;38.33;20.35;;;7.70;99.90;;;;;;5053898;28;20041;-79
2024/02/28 10:00:05;;;;;;;42.90;19.13;;;7.70;99.90;;;;;;5052660;28;20443;-79
2024/02/28 10:02:31;;;;;;;42.17;20.67;;;7.70;99.90;;;;;;5056112;28;20033;-78
2024/02/28 10:04:58;;;;;;;36.95;20.83;;;7.70;99.90;;;;;;5056095;28;20092;-79
2024/02/28 10:07:23;;;;;;;70.78;22.98;;;7.80;99.90;;;;;;5056536;28;20079;-78
2024/02/28 10:09:49;;;;;;;39.17;21.25;;;7.80;99.90;;;;;;5056134;28;20096;-78
2024/02/28 10:12:15;;;;;;;38.25;21.52;;;7.80;99.90;;;;;;5055888;28;20485;-78
2024/02/28 10:14:40;;;;;;;37.67;21.38;;;7.90;99.90;;;;;;5056584;28;20398;-79
2024/02/28 10:17:08;;;;;;;37.38;21.13;;;7.90;99.90;;;;;;5055280;28;20449;-78
2024/02/28 10:19:33;;;;;;;38.00;20.67;;;7.80;99.90;;;;;;5038736;28;20036;-78
2024/02/28 10:21:59;;;;;;;38.53;19.98;;;7.80;99.90;;;;;;5054709;28;20172;-78
2024/02/28 10:24:25;;;;;;;38.55;20.15;;;7.80;99.90;;;;;;5054167;28;20045;-78
2024/02/28 10:26:57;;;;;;;40.35;20.60;;;7.80;99.90;;;;;;5053555;28;20040;-79
2024/02/28 10:29:24;;;;;;;36.72;20.88;;;7.70;99.90;;;;;;5054430;28;20033;-78
2024/02/28 10:31:55;;;;;;;37.95;21.83;;;7.80;99.90;;;;;;5053250;28;20171;-78
2024/02/28 10:34:20;;;;;;;34.55;20.20;;;7.80;99.90;;;;;;5052830;28;20068;-78
2024/02/28 10:36:46;;;;;;;39.15;22.95;;;7.80;99.90;;;;;;5052497;28;20122;-77
2024/02/28 10:39:13;;;;;;;38.13;19.58;;;7.80;99.90;;;;;;5036581;28;20037;-78
2024/02/28 10:41:39;;;;;;;34.63;20.00;;;7.70;99.90;;;;;;5054129;28;20107;-78
2024/02/28 10:46:31;;;;;;;34.08;19.50;;;7.70;99.90;;;;;;5111315;22;20051;-68
2024/02/28 10:48:57;;;;;;;35.50;19.13;;;7.70;99.90;;;;;;5093811;28;20558;-68
2024/02/28 10:51:27;;;;;;;37.58;20.08;;;7.80;99.90;;;;;;5093085;28;20170;-68
2024/02/28 10:54:11;;;;;;;33.78;19.95;;;7.70;99.90;;;;;;5093953;28;20495;-68
2024/02/28 10:56:38;;;;;;;36.13;21.30;;;7.60;99.90;;;;;;5073598;28;20041;-68
2024/02/28 10:59:09;;;;;;;35.78;20.15;;;7.70;99.90;;;;;;5073024;28;20492;-68
2024/02/28 11:01:43;;;;;;;38.15;20.65;;;7.60;99.90;;;;;;5073248;28;20033;-70
2024/02/28 11:04:10;;;;;;;39.15;20.80;;;7.80;99.90;;;;;;5073453;28;20051;-70
2024/02/28 11:06:50;;;;;;;36.70;20.38;;;7.70;99.90;;;;;;5073675;28;20115;-70
2024/02/28 11:09:23;;;;;;;40.30;20.67;;;7.70;99.90;;;;;;5073163;28;20097;-70
2024/02/28 11:11:52;;;;;;;34.53;19.60;;;7.70;99.90;;;;;;5055595;28;20097;-70
2024/02/28 11:14:22;;;;;;;35.95;19.85;;;7.80;99.90;;;;;;5073351;28;20115;-68
2024/02/28 11:16:48;;;;;;;36.40;20.35;;;7.90;99.90;;;;;;5073492;28;20098;-68
2024/02/28 11:19:23;;;;;;;36.72;20.45;;;7.90;99.90;;;;;;5072129;28;20480;-68
2024/02/28 11:21:54;;;;;;;35.13;21.02;;;7.90;99.90;;;;;;5072314;28;20120;-69
2024/02/28 11:24:24;;;;;;;34.33;20.02;;;7.90;99.90;;;;;;5072742;28;20038;-69
2024/02/28 11:26:51;;;;;;;34.92;20.35;;;7.80;99.90;;;;;;5051668;28;20033;-69
2024/02/28 11:29:16;;;;;;;36.38;19.63;;;7.90;99.90;;;;;;5052968;28;20119;-69
2024/02/28 11:31:42;;;;;;;35.67;20.33;;;7.90;99.90;;;;;;5052621;28;20068;-69
2024/02/28 11:34:08;;;;;;;41.70;20.75;;;7.90;99.90;;;;;;5052901;28;20424;-69
2024/02/28 11:36:34;;;;;;;36.83;20.50;;;7.90;99.90;;;;;;5035065;28;20905;-69
2024/02/28 11:39:00;;;;;;;34.35;19.35;;;8.10;99.90;;;;;;5034584;28;20057;-69
2024/02/28 11:41:28;;;;;;;35.65;19.95;;;8.00;99.90;;;;;;5052475;28;20068;-69
2024/02/28 11:43:54;;;;;;;37.00;20.92;;;8.10;99.90;;;;;;5034716;28;20048;-69
2024/02/28 11:46:20;;;;;;;39.25;20.52;;;8.20;99.90;;;;;;5052485;28;20033;-69
2024/02/28 11:48:46;;;;;;;38.08;21.40;;;8.20;99.90;;;;;;5052330;28;20041;-69
2024/02/28 11:51:11;;;;;;;34.22;20.45;;;8.20;99.90;;;;;;5052053;28;20037;-69
2024/02/28 11:53:37;;;;;;;33.53;19.75;;;8.20;99.90;;;;;;5052746;28;20126;-69
2024/02/28 11:56:03;;;;;;;33.47;20.33;;;8.10;99.90;;;;;;5052484;28;20033;-69
2024/02/28 11:58:29;;;;;;;36.13;21.02;;;8.20;99.90;;;;;;5052164;28;20307;-69
2024/02/28 12:00:55;;;;;;;33.92;19.88;;;8.30;99.90;;;;;;5051955;28;20040;-69
2024/02/28 12:03:24;;;;;;;36.65;22.33;;;8.30;99.90;;;;;;5052198;28;20099;-69
2024/02/28 12:05:51;;;;;;;38.80;22.42;;;8.20;99.90;;;;;;5052201;28;20124;-69
2024/02/28 12:08:19;;;;;;;37.25;20.98;;;8.30;99.90;;;;;;5051606;28;20531;-69
2024/02/28 12:10:45;;;;;;;42.00;22.90;;;8.30;99.90;;;;;;5055493;28;20039;-69
2024/02/28 12:13:15;;;;;;;40.33;21.95;;;8.30;99.90;;;;;;5071682;28;20040;-69
2024/02/28 12:15:41;;;;;;;36.72;20.55;;;8.30;99.90;;;;;;5071918;28;20076;-69
2024/02/28 12:18:10;;;;;;;34.88;21.73;;;8.20;99.90;;;;;;5071505;28;20087;-69
2024/02/28 12:20:39;;;;;;;39.45;21.08;;;8.30;99.90;;;;;;5071721;28;20090;-69
2024/02/28 12:23:05;;;;;;;36.38;21.42;;;8.30;99.90;;;;;;5071419;28;20051;-69
2024/02/28 12:25:31;;;;;;;36.70;21.02;;;8.40;99.90;;;;;;5071910;28;20036;-69
2024/02/28 12:27:57;;;;;;;33.78;22.08;;;8.40;99.90;;;;;;5071943;28;20036;-68
2024/02/28 12:30:22;;;;;;;35.60;21.05;;;8.50;99.90;;;;;;5071803;28;20119;-69
2024/02/28 12:32:48;;;;;;;36.67;21.50;;;8.50;99.90;;;;;;5071330;28;20494;-68